Time,TemperatureF,DewpointF,PressureIn,WindDirection,WindDirectionDegrees,WindSpeedMPH,WindSpeedGustMPH,Humidity,HourlyPrecipIn,Conditions,Clouds,dailyrainin,SoftwareType,DateUTC
2013-08-11 00:01:00,55.0,53.9,29.83,SW,219,0.0,0.0,96,0.00,,,0.00,Wunderground v.1.15,2013-08-11 04:01:00,
2013-08-11 00:06:00,55.0,53.9,29.83,SW,219,0.0,0.0,96,0.00,,,0.00,Wunderground v.1.15,2013-08-11 04:06:00,
2013-08-11 00:16:00,54.9,53.8,29.83,SW,219,0.0,0.0,96,0.00,,,0.00,Wunderground v.1.15,2013-08-11 04:16:00,
2013-08-11 00:21:00,54.8,53.7,29.83,SW,219,0.0,0.0,96,0.00,,,0.00,Wunderground v.1.15,2013-08-11 04:21:00,
2013-08-11 00:26:00,54.6,53.5,29.83,SW,219,0.0,0.0,96,0.00,,,0.00,Wunderground v.1.15,2013-08-11 04:26:00,
2013-08-11 00:36:00,54.5,53.4,29.83,SW,219,0.0,0.0,96,0.00,,,0.00,Wunderground v.1.15,2013-08-11 04:36:00,
2013-08-11 00:41:00,54.4,53.3,29.83,SW,219,0.0,0.0,96,0.00,,,0.00,Wunderground v.1.15,2013-08-11 04:41:00,
2013-08-11 00:46:00,54.4,53.3,29.83,SW,219,0.0,0.0,96,0.00,,,0.00,Wunderground v.1.15,2013-08-11 04:46:00,
2013-08-11 00:56:00,54.2,53.1,29.83,SW,219,0.0,0.0,96,0.00,,,0.00,Wunderground v.1.15,2013-08-11 04:56:00,
2013-08-11 01:06:00,54.3,53.5,29.83,SW,219,0.0,0.0,97,0.00,,,0.00,Wunderground v.1.15,2013-08-11 05:06:00,
2013-08-11 01:16:00,54.2,53.4,29.83,SW,219,0.0,0.0,97,0.00,,,0.00,Wunderground v.1.15,2013-08-11 05:16:00,
2013-08-11 01:21:00,54.2,53.4,29.83,SW,219,0.0,0.0,97,0.00,,,0.00,Wunderground v.1.15,2013-08-11 05:21:00,
2013-08-11 01:26:00,54.1,53.3,29.83,SW,219,0.0,0.0,97,0.00,,,0.00,Wunderground v.1.15,2013-08-11 05:26:00,
2013-08-11 01:36:00,54.1,53.3,29.83,SW,219,0.0,0.0,97,0.00,,,0.00,Wunderground v.1.15,2013-08-11 05:36:00,
2013-08-11 01:46:00,53.8,53.0,29.83,SW,219,0.0,0.0,97,0.00,,,0.00,Wunderground v.1.15,2013-08-11 05:46:00,
2013-08-11 01:56:00,53.7,52.9,29.83,SW,219,0.0,0.0,97,0.00,,,0.00,Wunderground v.1.15,2013-08-11 05:56:00,
2013-08-11 02:06:00,53.5,52.7,29.83,SW,219,0.0,0.0,97,0.00,,,0.00,Wunderground v.1.15,2013-08-11 06:06:00,
2013-08-11 02:16:00,53.3,52.5,29.84,SW,219,0.0,0.0,97,0.00,,,0.00,Wunderground v.1.15,2013-08-11 06:16:00,
2013-08-11 02:21:00,53.2,52.4,29.84,SW,219,0.0,0.0,97,0.00,,,0.00,Wunderground v.1.15,2013-08-11 06:21:00,
2013-08-11 02:31:00,53.0,52.2,29.84,SW,219,0.0,0.0,97,0.00,,,0.00,Wunderground v.1.15,2013-08-11 06:31:00,
2013-08-11 02:36:00,52.9,52.1,29.84,SW,219,0.0,0.0,97,0.00,,,0.00,Wunderground v.1.15,2013-08-11 06:36:00,
2013-08-11 02:46:00,52.6,51.8,29.84,SW,219,0.0,0.0,97,0.00,,,0.00,Wunderground v.1.15,2013-08-11 06:46:00,
2013-08-11 03:01:00,52.6,51.8,29.84,SW,219,0.0,0.0,97,0.00,,,0.00,Wunderground v.1.15,2013-08-11 07:01:00,
2013-08-11 03:11:00,52.6,51.8,29.84,SW,219,0.0,0.0,97,0.00,,,0.00,Wunderground v.1.15,2013-08-11 07:11:00,
2013-08-11 03:21:00,52.6,51.8,29.83,SW,219,0.0,0.0,97,0.00,,,0.00,Wunderground v.1.15,2013-08-11 07:21:00,
2013-08-11 03:26:00,52.4,51.6,29.84,SW,219,0.0,0.0,97,0.00,,,0.00,Wunderground v.1.15,2013-08-11 07:26:00,
2013-08-11 03:31:00,52.2,51.4,29.84,SW,219,0.0,0.0,97,0.00,,,0.00,Wunderground v.1.15,2013-08-11 07:31:00,
2013-08-11 03:41:00,52.1,51.3,29.84,SW,219,0.0,0.0,97,0.00,,,0.00,Wunderground v.1.15,2013-08-11 07:41:00,
2013-08-11 03:56:00,51.9,51.1,29.84,SW,219,0.0,0.0,97,0.00,,,0.00,Wunderground v.1.15,2013-08-11 07:56:00,
2013-08-11 04:11:00,51.6,50.8,29.84,SW,219,0.0,0.0,97,0.00,,,0.00,Wunderground v.1.15,2013-08-11 08:11:00,
2013-08-11 04:21:00,51.5,50.7,29.84,SW,219,0.0,0.0,97,0.00,,,0.00,Wunderground v.1.15,2013-08-11 08:21:00,
2013-08-11 04:31:00,51.7,51.2,29.84,SW,219,0.0,0.0,98,0.00,,,0.00,Wunderground v.1.15,2013-08-11 08:31:00,
2013-08-11 04:41:00,51.6,51.1,29.84,SW,219,0.0,0.0,98,0.00,,,0.00,Wunderground v.1.15,2013-08-11 08:41:00,
2013-08-11 04:51:00,51.5,51.0,29.84,SW,219,0.0,0.0,98,0.00,,,0.00,Wunderground v.1.15,2013-08-11 08:51:00,
2013-08-11 05:01:00,51.4,50.9,29.84,SW,219,0.0,0.0,98,0.00,,,0.00,Wunderground v.1.15,2013-08-11 09:01:00,
2013-08-11 05:06:00,51.3,50.8,29.84,SW,219,0.0,0.0,98,0.00,,,0.00,Wunderground v.1.15,2013-08-11 09:06:00,
2013-08-11 05:16:00,51.2,50.7,29.84,SW,219,0.0,0.0,98,0.00,,,0.00,Wunderground v.1.15,2013-08-11 09:16:00,
2013-08-11 05:21:00,51.2,50.7,29.84,SW,219,0.0,0.0,98,0.00,,,0.00,Wunderground v.1.15,2013-08-11 09:21:00,
2013-08-11 05:31:00,51.0,50.5,29.84,SW,219,0.0,0.0,98,0.00,,,0.00,Wunderground v.1.15,2013-08-11 09:31:00,
2013-08-11 05:41:00,51.2,50.7,29.85,SW,219,0.0,0.0,98,0.00,,,0.00,Wunderground v.1.15,2013-08-11 09:41:00,
2013-08-11 05:51:00,51.0,50.5,29.85,SW,219,0.0,0.0,98,0.00,,,0.00,Wunderground v.1.15,2013-08-11 09:51:00,
2013-08-11 06:01:00,50.8,50.3,29.85,SW,219,0.0,0.0,98,0.00,,,0.00,Wunderground v.1.15,2013-08-11 10:01:00,
2013-08-11 06:11:00,51.0,50.5,29.85,SW,219,0.0,0.0,98,0.00,,,0.00,Wunderground v.1.15,2013-08-11 10:11:00,
2013-08-11 06:21:00,50.9,50.4,29.85,SW,219,0.0,0.0,98,0.00,,,0.00,Wunderground v.1.15,2013-08-11 10:21:00,
2013-08-11 06:31:00,50.8,50.3,29.86,SW,219,0.0,0.0,98,0.00,,,0.00,Wunderground v.1.15,2013-08-11 10:31:00,
2013-08-11 06:41:00,50.9,50.4,29.86,SW,219,0.0,0.0,98,0.00,,,0.00,Wunderground v.1.15,2013-08-11 10:41:00,
2013-08-11 06:51:00,51.1,50.6,29.86,SW,219,0.0,0.0,98,0.00,,,0.00,Wunderground v.1.15,2013-08-11 10:51:00,
2013-08-11 07:01:00,51.5,51.0,29.86,SW,219,0.0,0.0,98,0.00,,,0.00,Wunderground v.1.15,2013-08-11 11:01:00,
2013-08-11 07:11:00,52.0,51.5,29.86,SW,219,0.0,0.0,98,0.00,,,0.00,Wunderground v.1.15,2013-08-11 11:11:00,
2013-08-11 07:21:00,53.0,52.7,29.86,SW,219,0.0,0.0,99,0.00,,,0.00,Wunderground v.1.15,2013-08-11 11:21:00,
2013-08-11 07:31:00,54.8,54.5,29.87,SW,219,0.0,0.0,99,0.00,,,0.00,Wunderground v.1.15,2013-08-11 11:31:00,
2013-08-11 07:41:00,56.6,56.3,29.87,SW,219,0.0,0.0,99,0.00,,,0.00,Wunderground v.1.15,2013-08-11 11:41:00,
2013-08-11 07:51:00,58.1,57.8,29.86,SW,219,0.0,2.0,99,0.00,,,0.00,Wunderground v.1.15,2013-08-11 11:51:00,
2013-08-11 08:01:00,58.4,58.1,29.86,SW,219,1.0,1.0,99,0.00,,,0.00,Wunderground v.1.15,2013-08-11 12:01:00,
2013-08-11 08:07:00,58.7,58.4,29.86,SW,219,0.0,1.0,99,0.00,,,0.00,Wunderground v.1.15,2013-08-11 12:07:00,
2013-08-11 08:16:00,59.1,58.8,29.86,SW,219,0.0,0.0,99,0.00,,,0.00,Wunderground v.1.15,2013-08-11 12:16:00,
2013-08-11 08:26:00,60.2,59.9,29.86,SW,219,1.0,1.0,99,0.00,,,0.00,Wunderground v.1.15,2013-08-11 12:26:00,
2013-08-11 08:36:00,61.3,60.7,29.86,SW,219,1.0,3.0,98,0.00,,,0.00,Wunderground v.1.15,2013-08-11 12:36:00,
2013-08-11 08:41:00,62.0,60.8,29.86,SW,219,1.0,2.0,96,0.00,,,0.00,Wunderground v.1.15,2013-08-11 12:41:00,
2013-08-11 08:51:00,63.2,60.5,29.87,SW,220,1.0,2.0,91,0.00,,,0.00,Wunderground v.1.15,2013-08-11 12:51:00,
2013-08-11 09:01:00,64.4,60.8,29.87,SW,220,1.0,3.0,88,0.00,,,0.00,Wunderground v.1.15,2013-08-11 13:01:00,
2013-08-11 09:06:00,65.0,60.7,29.87,SW,220,1.0,3.0,86,0.00,,,0.00,Wunderground v.1.15,2013-08-11 13:06:00,
2013-08-11 09:16:00,65.8,60.5,29.87,West,261,2.0,2.0,83,0.00,,,0.00,Wunderground v.1.15,2013-08-11 13:16:00,
2013-08-11 09:21:00,66.2,60.9,29.87,West,265,2.0,2.0,83,0.00,,,0.00,Wunderground v.1.15,2013-08-11 13:21:00,
2013-08-11 09:31:00,67.0,60.6,29.87,West,264,1.0,1.0,80,0.00,,,0.00,Wunderground v.1.15,2013-08-11 13:31:00,
2013-08-11 09:41:00,68.1,61.0,29.87,WNW,292,1.0,3.0,78,0.00,,,0.00,Wunderground v.1.15,2013-08-11 13:41:00,
2013-08-11 09:46:00,68.2,60.7,29.87,West,264,1.0,4.0,77,0.00,,,0.00,Wunderground v.1.15,2013-08-11 13:46:00,
2013-08-11 09:56:00,68.4,60.2,29.87,SW,221,2.0,3.0,75,0.00,,,0.00,Wunderground v.1.15,2013-08-11 13:56:00,
2013-08-11 10:11:00,69.3,59.5,29.87,West,272,2.0,3.0,71,0.00,,,0.00,Wunderground v.1.15,2013-08-11 14:11:00,
2013-08-11 10:21:00,69.5,59.3,29.87,SSW,198,2.0,4.0,70,0.00,,,0.00,Wunderground v.1.15,2013-08-11 14:21:00,
2013-08-11 10:26:00,69.4,59.2,29.87,West,269,2.0,4.0,70,0.00,,,0.00,Wunderground v.1.15,2013-08-11 14:26:00,
2013-08-11 10:31:00,69.7,59.9,29.87,West,265,2.0,2.0,71,0.00,,,0.00,Wunderground v.1.15,2013-08-11 14:31:00,
2013-08-11 10:41:00,70.3,58.0,29.86,WNW,291,2.0,2.0,65,0.00,,,0.00,Wunderground v.1.15,2013-08-11 14:41:00,
2013-08-11 10:51:00,70.7,59.2,29.86,WSW,237,2.0,4.0,67,0.00,,,0.00,Wunderground v.1.15,2013-08-11 14:51:00,
2013-08-11 11:01:00,71.2,59.3,29.86,WSW,255,2.0,2.0,66,0.00,,,0.00,Wunderground v.1.15,2013-08-11 15:01:00,
2013-08-11 11:06:00,71.3,59.8,29.87,NW,311,2.0,5.0,67,0.00,,,0.00,Wunderground v.1.15,2013-08-11 15:06:00,
2013-08-11 11:16:00,71.7,59.7,29.87,WSW,248,2.0,3.0,66,0.00,,,0.00,Wunderground v.1.15,2013-08-11 15:16:00,
2013-08-11 11:21:00,71.9,59.1,29.86,SW,225,2.0,2.0,64,0.00,,,0.00,Wunderground v.1.15,2013-08-11 15:21:00,
2013-08-11 11:31:00,71.9,58.2,29.86,SW,214,3.0,3.0,62,0.00,,,0.00,Wunderground v.1.15,2013-08-11 15:31:00,
2013-08-11 11:41:00,72.3,59.0,29.86,WNW,283,2.0,2.0,63,0.00,,,0.00,Wunderground v.1.15,2013-08-11 15:41:00,
2013-08-11 11:51:00,72.6,59.7,29.86,SW,236,2.0,2.0,64,0.00,,,0.00,Wunderground v.1.15,2013-08-11 15:51:00,
2013-08-11 12:01:00,73.1,60.6,29.86,West,267,2.0,5.0,65,0.00,,,0.00,Wunderground v.1.15,2013-08-11 16:01:00,
2013-08-11 12:06:00,72.8,58.1,29.86,SW,227,3.0,5.0,60,0.00,,,0.00,Wunderground v.1.15,2013-08-11 16:06:00,
2013-08-11 12:16:00,72.9,59.6,29.86,WNW,302,2.0,3.0,63,0.00,,,0.00,Wunderground v.1.15,2013-08-11 16:16:00,
2013-08-11 12:21:00,73.4,60.5,29.86,WNW,293,2.0,2.0,64,0.00,,,0.00,Wunderground v.1.15,2013-08-11 16:21:00,
2013-08-11 12:26:00,73.5,59.2,29.86,WNW,282,2.0,2.0,61,0.00,,,0.00,Wunderground v.1.15,2013-08-11 16:26:00,
2013-08-11 12:36:00,73.9,60.5,29.85,WNW,284,2.0,2.0,63,0.00,,,0.00,Wunderground v.1.15,2013-08-11 16:36:00,
2013-08-11 12:46:00,74.0,56.8,29.85,WNW,285,2.0,2.0,55,0.00,,,0.00,Wunderground v.1.15,2013-08-11 16:46:00,
2013-08-11 12:56:00,73.8,59.5,29.85,West,267,2.0,2.0,61,0.00,,,0.00,Wunderground v.1.15,2013-08-11 16:56:00,
2013-08-11 13:11:00,73.7,59.4,29.84,NNE,21,1.0,2.0,61,0.00,,,0.00,Wunderground v.1.15,2013-08-11 17:11:00,
2013-08-11 13:21:00,74.1,59.3,29.84,WSW,257,3.0,3.0,60,0.00,,,0.00,Wunderground v.1.15,2013-08-11 17:21:00,
2013-08-11 13:26:00,74.0,58.8,29.84,West,278,2.0,3.0,59,0.00,,,0.00,Wunderground v.1.15,2013-08-11 17:26:00,
2013-08-11 13:36:00,74.6,58.8,29.84,WNW,291,2.0,2.0,58,0.00,,,0.00,Wunderground v.1.15,2013-08-11 17:36:00,
2013-08-11 13:46:00,74.6,58.8,29.83,NW,318,2.0,2.0,58,0.00,,,0.00,Wunderground v.1.15,2013-08-11 17:46:00,
2013-08-11 13:51:00,74.5,58.8,29.83,West,267,2.0,2.0,58,0.00,,,0.00,Wunderground v.1.15,2013-08-11 17:51:00,
2013-08-11 13:56:00,74.7,56.9,29.83,SSW,199,2.0,2.0,54,0.00,,,0.00,Wunderground v.1.15,2013-08-11 17:56:00,
2013-08-11 14:06:00,74.7,58.9,29.83,WNW,303,2.0,4.0,58,0.00,,,0.00,Wunderground v.1.15,2013-08-11 18:06:00,
2013-08-11 14:16:00,74.9,56.6,29.83,North,5,2.0,2.0,53,0.00,,,0.00,Wunderground v.1.15,2013-08-11 18:16:00,
2013-08-11 14:21:00,75.0,59.2,29.83,WNW,290,3.0,3.0,58,0.00,,,0.00,Wunderground v.1.15,2013-08-11 18:21:00,
2013-08-11 14:31:00,75.4,58.6,29.83,WNW,290,2.0,2.0,56,0.00,,,0.00,Wunderground v.1.15,2013-08-11 18:31:00,
2013-08-11 14:41:00,75.2,57.4,29.83,ENE,77,2.0,2.0,54,0.00,,,0.00,Wunderground v.1.15,2013-08-11 18:41:00,
2013-08-11 14:56:00,75.4,54.9,29.83,NNW,337,1.0,2.0,49,0.00,,,0.00,Wunderground v.1.15,2013-08-11 18:56:00,
2013-08-11 15:01:00,75.7,55.7,29.83,WNW,302,1.0,1.0,50,0.00,,,0.00,Wunderground v.1.15,2013-08-11 19:01:00,
2013-08-11 15:16:00,76.4,55.8,29.82,ENE,57,2.0,2.0,49,0.00,,,0.00,Wunderground v.1.15,2013-08-11 19:16:00,
2013-08-11 15:26:00,76.9,56.8,29.82,WNW,290,1.0,3.0,50,0.00,,,0.00,Wunderground v.1.15,2013-08-11 19:26:00,
2013-08-11 15:31:00,76.7,55.0,29.82,SW,218,2.0,2.0,47,0.00,,,0.00,Wunderground v.1.15,2013-08-11 19:31:00,
2013-08-11 15:41:00,76.6,57.1,29.82,WNW,284,2.0,2.0,51,0.00,,,0.00,Wunderground v.1.15,2013-08-11 19:41:00,
2013-08-11 15:51:00,77.0,56.4,29.81,WNW,293,1.0,1.0,49,0.00,,,0.00,Wunderground v.1.15,2013-08-11 19:51:00,
2013-08-11 16:01:00,77.2,56.0,29.81,WNW,290,1.0,1.0,48,0.00,,,0.00,Wunderground v.1.15,2013-08-11 20:01:00,
2013-08-11 16:06:00,77.3,57.2,29.81,NNE,24,2.0,2.0,50,0.00,,,0.00,Wunderground v.1.15,2013-08-11 20:06:00,
2013-08-11 16:21:00,77.6,58.6,29.81,WSW,256,1.0,1.0,52,0.00,,,0.00,Wunderground v.1.15,2013-08-11 20:21:00,
2013-08-11 16:26:00,77.4,56.2,29.81,West,276,1.0,1.0,48,0.00,,,0.00,Wunderground v.1.15,2013-08-11 20:26:00,
2013-08-11 16:36:00,77.1,59.2,29.80,WNW,286,2.0,2.0,54,0.00,,,0.00,Wunderground v.1.15,2013-08-11 20:36:00,
2013-08-11 16:46:00,77.1,57.0,29.81,SSW,204,2.0,2.0,50,0.00,,,0.00,Wunderground v.1.15,2013-08-11 20:46:00,
2013-08-11 16:56:00,77.2,57.7,29.80,WNW,298,1.0,3.0,51,0.00,,,0.00,Wunderground v.1.15,2013-08-11 20:56:00,
2013-08-11 17:06:00,77.5,59.0,29.80,NNE,23,1.0,3.0,53,0.00,,,0.00,Wunderground v.1.15,2013-08-11 21:06:00,
2013-08-11 17:21:00,77.8,58.2,29.80,WNW,285,1.0,2.0,51,0.00,,,0.00,Wunderground v.1.15,2013-08-11 21:21:00,
2013-08-11 17:31:00,77.3,59.4,29.80,WNW,285,2.0,2.0,54,0.00,,,0.00,Wunderground v.1.15,2013-08-11 21:31:00,
2013-08-11 17:46:00,76.7,57.7,29.80,WNW,284,1.0,2.0,52,0.00,,,0.00,Wunderground v.1.15,2013-08-11 21:46:00,
2013-08-11 17:56:00,76.2,57.3,29.79,SW,224,2.0,3.0,52,0.00,,,0.00,Wunderground v.1.15,2013-08-11 21:56:00,
2013-08-11 18:06:00,76.0,59.7,29.79,SW,218,1.0,2.0,57,0.00,,,0.00,Wunderground v.1.15,2013-08-11 22:06:00,
2013-08-11 18:16:00,76.3,58.9,29.79,SW,218,0.0,0.0,55,0.00,,,0.00,Wunderground v.1.15,2013-08-11 22:16:00,
2013-08-11 18:21:00,76.2,59.4,29.78,WSW,252,0.0,0.0,56,0.00,,,0.00,Wunderground v.1.15,2013-08-11 22:21:00,
2013-08-11 18:31:00,75.5,60.2,29.78,WSW,252,0.0,0.0,59,0.00,,,0.00,Wunderground v.1.15,2013-08-11 22:31:00,
2013-08-11 18:41:00,74.9,61.5,29.78,WSW,252,0.0,0.0,63,0.00,,,0.00,Wunderground v.1.15,2013-08-11 22:41:00,
2013-08-11 18:51:00,74.5,61.5,29.78,WSW,252,0.0,0.0,64,0.00,,,0.00,Wunderground v.1.15,2013-08-11 22:51:00,
2013-08-11 18:56:00,74.0,61.0,29.78,WSW,252,0.0,0.0,64,0.00,,,0.00,Wunderground v.1.15,2013-08-11 22:56:00,
2013-08-11 19:06:00,73.7,61.6,29.78,WSW,252,0.0,0.0,66,0.00,,,0.00,Wunderground v.1.15,2013-08-11 23:06:00,
2013-08-11 19:16:00,73.5,62.3,29.78,WSW,252,0.0,0.0,68,0.00,,,0.00,Wunderground v.1.15,2013-08-11 23:16:00,
2013-08-11 19:26:00,73.3,64.1,29.78,WSW,252,0.0,0.0,73,0.00,,,0.00,Wunderground v.1.15,2013-08-11 23:26:00,
2013-08-11 19:31:00,72.8,63.6,29.78,WSW,252,0.0,0.0,73,0.00,,,0.00,Wunderground v.1.15,2013-08-11 23:31:00,
2013-08-11 19:41:00,71.2,64.4,29.78,WSW,252,0.0,0.0,79,0.00,,,0.00,Wunderground v.1.15,2013-08-11 23:41:00,
2013-08-11 19:46:00,70.4,64.3,29.77,WSW,252,0.0,0.0,81,0.00,,,0.00,Wunderground v.1.15,2013-08-11 23:46:00,
2013-08-11 20:01:00,68.9,63.9,29.77,WSW,252,0.0,0.0,84,0.00,,,0.00,Wunderground v.1.15,2013-08-12 00:01:00,
2013-08-11 20:06:00,68.3,62.9,29.76,WSW,252,0.0,0.0,83,0.00,,,0.00,Wunderground v.1.15,2013-08-12 00:06:00,
2013-08-11 20:16:00,67.4,62.7,29.76,WSW,252,0.0,0.0,85,0.00,,,0.00,Wunderground v.1.15,2013-08-12 00:16:00,
2013-08-11 20:26:00,66.5,62.2,29.76,WSW,252,0.0,0.0,86,0.00,,,0.00,Wunderground v.1.15,2013-08-12 00:26:00,
2013-08-11 20:36:00,65.6,61.6,29.76,WSW,252,0.0,0.0,87,0.00,,,0.00,Wunderground v.1.15,2013-08-12 00:36:00,
2013-08-11 20:41:00,65.3,61.7,29.76,WSW,252,0.0,0.0,88,0.00,,,0.00,Wunderground v.1.15,2013-08-12 00:41:00,
2013-08-11 20:51:00,64.7,61.4,29.76,WSW,252,0.0,0.0,89,0.00,,,0.00,Wunderground v.1.15,2013-08-12 00:51:00,
2013-08-11 21:01:00,64.1,61.1,29.77,WSW,252,0.0,0.0,90,0.00,,,0.00,Wunderground v.1.15,2013-08-12 01:01:00,
2013-08-11 21:06:00,63.9,61.2,29.77,WSW,252,0.0,0.0,91,0.00,,,0.00,Wunderground v.1.15,2013-08-12 01:06:00,
2013-08-11 21:21:00,63.6,61.2,29.77,WSW,252,0.0,0.0,92,0.00,,,0.00,Wunderground v.1.15,2013-08-12 01:21:00,
2013-08-11 21:26:00,63.5,60.8,29.78,WSW,252,0.0,0.0,91,0.00,,,0.00,Wunderground v.1.15,2013-08-12 01:26:00,
2013-08-11 21:36:00,63.4,61.0,29.78,WSW,252,0.0,0.0,92,0.00,,,0.00,Wunderground v.1.15,2013-08-12 01:36:00,
2013-08-11 21:51:00,63.5,61.1,29.77,WSW,252,0.0,0.0,92,0.00,,,0.00,Wunderground v.1.15,2013-08-12 01:51:00,
2013-08-11 22:01:00,63.5,61.1,29.78,WSW,252,0.0,0.0,92,0.00,,,0.00,Wunderground v.1.15,2013-08-12 02:01:00,
2013-08-11 22:06:00,63.5,61.1,29.78,WSW,252,0.0,0.0,92,0.00,,,0.00,Wunderground v.1.15,2013-08-12 02:06:00,
2013-08-11 22:26:00,64.0,60.7,29.78,WSW,252,0.0,1.0,89,0.00,,,0.00,Wunderground v.1.15,2013-08-12 02:26:00,
2013-08-11 22:31:00,64.1,60.5,29.78,WSW,252,0.0,0.0,88,0.00,,,0.00,Wunderground v.1.15,2013-08-12 02:31:00,
2013-08-11 22:41:00,64.1,60.5,29.78,WSW,252,0.0,0.0,88,0.00,,,0.00,Wunderground v.1.15,2013-08-12 02:41:00,
2013-08-11 22:51:00,64.1,61.1,29.78,WSW,252,0.0,0.0,90,0.00,,,0.00,Wunderground v.1.15,2013-08-12 02:51:00,
2013-08-11 23:01:00,63.9,60.6,29.78,WSW,252,0.0,0.0,89,0.00,,,0.00,Wunderground v.1.15,2013-08-12 03:01:00,
2013-08-11 23:06:00,63.8,60.5,29.78,WSW,252,0.0,0.0,89,0.00,,,0.00,Wunderground v.1.15,2013-08-12 03:06:00,
2013-08-11 23:16:00,63.7,60.7,29.78,WSW,252,0.0,0.0,90,0.00,,,0.00,Wunderground v.1.15,2013-08-12 03:16:00,
2013-08-11 23:21:00,63.6,60.6,29.78,WSW,252,0.0,0.0,90,0.00,,,0.00,Wunderground v.1.15,2013-08-12 03:21:00,
2013-08-11 23:41:00,63.4,60.4,29.78,WSW,252,0.0,0.0,90,0.00,,,0.00,Wunderground v.1.15,2013-08-12 03:41:00,
2013-08-11 23:56:00,63.4,60.4,29.78,WSW,252,0.0,0.0,90,0.00,,,0.00,Wunderground v.1.15,2013-08-12 03:56:00,